createdAt,value
2018-07-07T00:01:13.918Z,4.10
2018-07-07T00:03:42.205Z,4.70
2018-07-07T00:06:10.602Z,4.67
2018-07-07T00:08:39.083Z,4.30
2018-07-07T00:11:07.454Z,4.43
2018-07-07T00:13:35.802Z,4.40
2018-07-07T00:16:04.088Z,4.80
2018-07-07T00:18:32.287Z,4.33
2018-07-07T00:21:00.649Z,4.77
2018-07-07T00:23:28.960Z,5.10
2018-07-07T00:25:57.190Z,5.13
2018-07-07T00:28:25.410Z,4.47
2018-07-07T00:30:54.024Z,4.67
2018-07-07T00:33:22.201Z,5.03
2018-07-07T00:35:50.405Z,4.50
2018-07-07T00:38:18.686Z,4.27
2018-07-07T00:40:46.914Z,4.27
2018-07-07T00:43:15.183Z,4.93
2018-07-07T00:45:43.358Z,4.17
2018-07-07T00:48:11.635Z,4.67
2018-07-07T00:50:39.826Z,4.40
2018-07-07T00:53:08.169Z,4.27
2018-07-07T00:55:36.489Z,4.00
2018-07-07T00:58:04.929Z,4.83
2018-07-07T01:00:44.542Z,4.00
2018-07-07T01:03:12.715Z,4.30
2018-07-07T01:05:44.451Z,4.43
2018-07-07T01:08:13.038Z,3.80
2018-07-07T01:10:41.287Z,4.57
2018-07-07T01:13:09.542Z,4.13
2018-07-07T01:15:38.296Z,4.07
2018-07-07T01:18:06.787Z,3.90
2018-07-07T01:20:35.337Z,4.07
2018-07-07T01:23:03.653Z,3.60
2018-07-07T01:25:31.916Z,3.77
2018-07-07T01:28:00.193Z,3.60
2018-07-07T01:30:28.318Z,4.10
2018-07-07T01:32:56.503Z,3.97
2018-07-07T01:35:24.952Z,3.90
2018-07-07T01:37:53.361Z,3.87
2018-07-07T01:40:21.815Z,3.60
2018-07-07T01:42:50.030Z,3.57
2018-07-07T01:45:18.255Z,3.53
2018-07-07T01:47:54.178Z,3.43
2018-07-07T01:50:22.494Z,3.63
2018-07-07T01:52:50.773Z,3.80
2018-07-07T01:55:19.073Z,3.10
2018-07-07T01:57:47.274Z,3.70
2018-07-07T02:00:15.759Z,3.60
2018-07-07T02:02:44.233Z,3.10
2018-07-07T02:05:12.439Z,4.10
2018-07-07T02:07:40.647Z,3.13
2018-07-07T02:10:09.001Z,3.70
2018-07-07T02:12:37.386Z,3.33
2018-07-07T02:15:05.805Z,4.00
2018-07-07T02:17:34.608Z,4.40
2018-07-07T02:20:02.871Z,3.63
2018-07-07T02:22:31.284Z,3.77
2018-07-07T02:24:59.730Z,3.37
2018-07-07T02:27:27.947Z,3.33
2018-07-07T02:29:56.238Z,4.00
2018-07-07T02:32:24.456Z,3.50
2018-07-07T02:34:52.655Z,3.73
2018-07-07T02:37:20.838Z,3.80
2018-07-07T02:39:49.400Z,3.60
2018-07-07T02:42:17.619Z,3.57
2018-07-07T02:44:45.906Z,3.43
2018-07-07T02:47:14.194Z,3.50
2018-07-07T02:49:42.448Z,3.70
2018-07-07T02:52:10.660Z,3.90
2018-07-07T02:54:39.103Z,3.90
2018-07-07T02:57:07.459Z,3.30
2018-07-07T02:59:35.666Z,3.80
2018-07-07T03:02:03.944Z,3.57
2018-07-07T03:04:32.206Z,3.27
2018-07-07T03:07:00.735Z,3.20
2018-07-07T03:09:29.014Z,3.60
2018-07-07T03:11:57.278Z,3.50
2018-07-07T03:14:25.515Z,3.40
2018-07-07T03:16:54.446Z,3.10
2018-07-07T03:19:22.679Z,2.70
2018-07-07T03:21:50.925Z,3.33
2018-07-07T03:24:19.158Z,3.50
2018-07-07T03:26:47.358Z,3.10
2018-07-07T03:29:15.684Z,3.00
2018-07-07T03:31:43.654Z,3.17
2018-07-07T03:34:11.880Z,3.07
2018-07-07T03:36:40.074Z,3.40
2018-07-07T03:39:09.094Z,3.53
2018-07-07T03:41:37.482Z,3.23
2018-07-07T03:44:05.814Z,3.37
2018-07-07T03:46:34.081Z,3.50
2018-07-07T03:49:02.273Z,3.40
2018-07-07T03:51:30.544Z,3.27
2018-07-07T03:53:58.762Z,2.93
2018-07-07T03:56:26.972Z,3.60
2018-07-07T03:58:55.223Z,3.80
2018-07-07T04:01:23.481Z,4.20
2018-07-07T04:03:51.685Z,4.57
2018-07-07T04:06:19.892Z,4.33
2018-07-07T04:08:48.098Z,4.70
2018-07-07T04:11:16.461Z,3.93
2018-07-07T04:13:44.717Z,4.30
2018-07-07T04:16:12.947Z,4.23
2018-07-07T04:18:41.179Z,4.53
2018-07-07T04:21:09.425Z,4.43
2018-07-07T04:23:38.516Z,4.70
2018-07-07T04:26:06.749Z,5.33
2018-07-07T04:28:34.964Z,4.63
2018-07-07T04:31:03.175Z,4.20
2018-07-07T04:33:31.518Z,4.07
2018-07-07T04:35:59.814Z,4.57
2018-07-07T04:38:28.017Z,5.00
2018-07-07T04:40:56.222Z,5.00
2018-07-07T04:43:24.517Z,4.53
2018-07-07T04:45:53.103Z,4.40
2018-07-07T04:48:21.295Z,4.40
2018-07-07T04:50:49.493Z,3.80
2018-07-07T04:53:17.693Z,3.67
2018-07-07T04:55:46.287Z,3.33
2018-07-07T04:58:14.529Z,3.33
2018-07-07T05:00:42.744Z,3.07
2018-07-07T05:03:10.971Z,3.30
2018-07-07T05:05:39.311Z,3.47
2018-07-07T05:08:07.795Z,3.93
2018-07-07T05:10:36.009Z,3.50
2018-07-07T05:13:04.256Z,3.53
2018-07-07T05:15:33.475Z,3.30
2018-07-07T05:18:01.726Z,4.00
2018-07-07T05:20:29.964Z,3.37
2018-07-07T05:22:58.199Z,3.20
2018-07-07T05:25:26.367Z,4.10
2018-07-07T05:27:54.655Z,3.70
2018-07-07T05:30:22.897Z,3.50
2018-07-07T05:32:50.866Z,3.37
2018-07-07T05:35:19.066Z,4.00
2018-07-07T05:37:47.408Z,3.43
2018-07-07T05:40:15.646Z,3.17
2018-07-07T05:42:43.872Z,3.60
2018-07-07T05:45:11.812Z,3.50
2018-07-07T05:47:40.068Z,3.13
2018-07-07T05:50:08.473Z,2.80
2018-07-07T05:52:36.597Z,2.73
2018-07-07T05:55:04.819Z,3.17
2018-07-07T05:57:33.027Z,3.10
2018-07-07T06:00:01.370Z,2.87
2018-07-07T06:02:30.817Z,2.73
2018-07-07T06:04:59.062Z,2.73
2018-07-07T06:07:27.377Z,2.80
2018-07-07T06:09:55.577Z,2.93
2018-07-07T06:12:24.725Z,2.70
2018-07-07T06:14:53.093Z,3.23
2018-07-07T06:17:21.293Z,2.93
2018-07-07T06:19:49.513Z,3.10
2018-07-07T06:22:17.759Z,2.93
2018-07-07T06:24:46.058Z,2.73
2018-07-07T06:27:14.322Z,2.73
2018-07-07T06:29:42.552Z,2.60
2018-07-07T06:32:10.938Z,2.30
2018-07-07T06:34:39.252Z,2.63
2018-07-07T06:37:07.575Z,2.57
2018-07-07T06:39:35.774Z,2.43
2018-07-07T06:42:03.962Z,2.10
2018-07-07T06:44:32.011Z,2.30
2018-07-07T06:47:00.188Z,2.50
2018-07-07T06:49:28.389Z,2.20
2018-07-07T06:51:56.595Z,2.67
2018-07-07T06:54:24.847Z,2.40
2018-07-07T06:56:53.198Z,2.07
2018-07-07T06:59:21.403Z,2.37
2018-07-07T07:01:49.608Z,2.17
2018-07-07T07:04:17.795Z,2.30
2018-07-07T07:06:46.054Z,2.20
2018-07-07T07:09:14.287Z,2.33
2018-07-07T07:11:42.519Z,2.20
2018-07-07T07:14:10.717Z,1.90
2018-07-07T07:16:38.985Z,2.73
2018-07-07T07:19:09.438Z,2.27
2018-07-07T07:21:37.947Z,2.20
2018-07-07T07:24:06.215Z,2.37
2018-07-07T07:26:34.481Z,2.47
2018-07-07T07:29:02.732Z,3.00
2018-07-07T07:31:30.955Z,2.77
2018-07-07T07:33:59.690Z,2.80
2018-07-07T07:36:39.424Z,3.80
2018-07-07T07:39:07.738Z,2.63
2018-07-07T07:41:36.032Z,3.00
2018-07-07T07:44:04.226Z,2.63
2018-07-07T07:46:32.731Z,3.03
2018-07-07T07:49:02.468Z,2.90
2018-07-07T07:51:30.738Z,2.70
2018-07-07T07:53:58.964Z,3.20
2018-07-07T07:56:28.862Z,3.00
2018-07-07T07:58:57.913Z,2.67
2018-07-07T08:01:26.283Z,2.37
2018-07-07T08:03:55.226Z,2.80
2018-07-07T08:06:24.440Z,2.57
2018-07-07T08:08:53.258Z,2.67
2018-07-07T08:11:21.512Z,2.33
2018-07-07T08:13:49.763Z,2.70
2018-07-07T08:16:18.029Z,2.30
2018-07-07T08:18:47.166Z,2.30
2018-07-07T08:21:15.385Z,2.60
2018-07-07T08:23:43.597Z,2.53
2018-07-07T08:26:11.819Z,2.40
2018-07-07T08:28:40.034Z,2.00
2018-07-07T08:31:08.614Z,2.10
2018-07-07T08:33:36.837Z,2.20
2018-07-07T08:36:05.184Z,2.37
2018-07-07T08:38:33.444Z,2.30
2018-07-07T08:41:02.469Z,1.90
2018-07-07T08:43:30.915Z,2.07
2018-07-07T08:45:59.381Z,2.43
2018-07-07T08:48:27.613Z,2.00
2018-07-07T08:50:55.855Z,1.93
2018-07-07T08:53:24.334Z,1.97
2018-07-07T08:55:52.429Z,1.90
2018-07-07T08:58:21.656Z,2.20
2018-07-07T09:00:49.894Z,2.50
2018-07-07T09:03:18.106Z,2.47
2018-07-07T09:05:47.449Z,2.07
2018-07-07T09:08:15.740Z,2.30
2018-07-07T09:10:43.942Z,2.20
2018-07-07T09:13:12.194Z,2.30
2018-07-07T09:15:40.442Z,2.30
2018-07-07T09:18:09.571Z,2.40
2018-07-07T09:20:38.132Z,2.20
2018-07-07T09:23:06.606Z,2.50
2018-07-07T09:25:35.130Z,2.30
2018-07-07T09:28:03.578Z,2.27
2018-07-07T09:30:32.099Z,2.27
2018-07-07T09:33:00.343Z,2.00
2018-07-07T09:35:28.579Z,2.00
2018-07-07T09:37:56.891Z,2.00
2018-07-07T09:40:25.133Z,2.03
2018-07-07T09:42:53.402Z,2.03
2018-07-07T09:45:21.887Z,1.97
2018-07-07T09:47:50.234Z,1.90
2018-07-07T09:50:18.571Z,2.10
2018-07-07T09:52:47.029Z,2.00
2018-07-07T09:55:16.215Z,1.97
2018-07-07T09:57:44.455Z,1.80
2018-07-07T10:00:17.417Z,1.83
2018-07-07T10:02:47.294Z,1.90
2018-07-07T10:05:15.711Z,2.03
2018-07-07T10:07:44.125Z,1.83
2018-07-07T10:10:12.320Z,1.80
2018-07-07T10:12:40.326Z,1.83
2018-07-07T10:15:08.875Z,2.03
2018-07-07T10:17:37.126Z,2.10
2018-07-07T10:20:05.554Z,1.90
2018-07-07T10:22:33.839Z,1.80
2018-07-07T10:25:02.824Z,1.77
2018-07-07T10:27:31.225Z,1.90
2018-07-07T10:29:59.599Z,1.57
2018-07-07T10:32:27.806Z,1.87
2018-07-07T10:34:55.961Z,1.90
2018-07-07T10:37:24.402Z,1.90
2018-07-07T10:39:52.949Z,2.13
2018-07-07T10:42:21.183Z,1.90
2018-07-07T10:44:49.409Z,2.10
2018-07-07T10:47:17.658Z,1.67
2018-07-07T10:49:46.144Z,1.70
2018-07-07T10:52:14.407Z,2.20
2018-07-07T10:54:42.949Z,1.80
2018-07-07T10:57:11.347Z,2.17
2018-07-07T10:59:39.814Z,2.20
2018-07-07T11:02:08.231Z,1.93
2018-07-07T11:04:36.435Z,2.00
2018-07-07T11:07:04.653Z,2.00
2018-07-07T11:09:32.854Z,2.10
2018-07-07T11:12:02.223Z,1.70
2018-07-07T11:14:30.427Z,2.00
2018-07-07T11:16:58.667Z,1.70
2018-07-07T11:19:26.945Z,1.60
2018-07-07T11:21:55.167Z,1.70
2018-07-07T11:24:23.978Z,1.70
2018-07-07T11:26:52.323Z,1.80
2018-07-07T11:29:20.572Z,1.57
2018-07-07T11:31:48.805Z,1.63
2018-07-07T11:34:17.147Z,1.60
2018-07-07T11:36:45.589Z,1.60
2018-07-07T11:39:13.765Z,1.73
2018-07-07T11:41:42.000Z,1.67
2018-07-07T11:44:10.240Z,1.77
2018-07-07T11:46:38.654Z,1.73
2018-07-07T11:49:06.877Z,1.60
2018-07-07T11:51:35.091Z,1.83
2018-07-07T11:54:03.343Z,1.80
2018-07-07T11:56:31.684Z,1.60
2018-07-07T11:58:59.954Z,1.73
2018-07-07T12:01:28.207Z,1.70
2018-07-07T12:03:56.426Z,1.57
2018-07-07T12:06:24.691Z,1.70
2018-07-07T12:08:53.014Z,1.60
2018-07-07T12:11:21.273Z,1.80
2018-07-07T12:13:49.460Z,1.73
2018-07-07T12:16:17.742Z,1.90
2018-07-07T12:18:46.971Z,1.80
2018-07-07T12:21:15.298Z,2.13
2018-07-07T12:23:43.511Z,1.70
2018-07-07T12:26:11.749Z,1.77
2018-07-07T12:28:39.987Z,1.80
2018-07-07T12:31:08.629Z,2.13
2018-07-07T12:33:36.845Z,1.50
2018-07-07T12:36:05.371Z,1.63
2018-07-07T12:38:33.610Z,1.67
2018-07-07T12:41:01.927Z,1.70
2018-07-07T12:43:30.360Z,1.93
2018-07-07T12:45:58.654Z,2.07
2018-07-07T12:48:26.819Z,1.80
2018-07-07T12:50:55.189Z,1.73
2018-07-07T12:53:24.370Z,1.63
2018-07-07T12:55:53.271Z,1.70
2018-07-07T12:58:21.502Z,1.80
2018-07-07T13:00:49.704Z,1.90
2018-07-07T13:03:17.900Z,1.70
2018-07-07T13:05:46.213Z,1.70
2018-07-07T13:08:14.450Z,1.53
2018-07-07T13:10:42.851Z,1.70
2018-07-07T13:13:11.047Z,1.50
2018-07-07T13:15:40.139Z,1.67
2018-07-07T13:18:08.678Z,1.50
2018-07-07T13:20:36.894Z,1.90
2018-07-07T13:23:05.202Z,1.60
2018-07-07T13:25:33.443Z,1.70
2018-07-07T13:28:01.798Z,1.80
2018-07-07T13:30:30.144Z,1.77
2018-07-07T13:32:58.418Z,1.87
2018-07-07T13:35:26.602Z,2.10
2018-07-07T13:37:55.851Z,1.57
2018-07-07T13:40:24.218Z,1.87
2018-07-07T13:42:52.527Z,1.70
2018-07-07T13:45:20.781Z,1.70
2018-07-07T13:47:49.029Z,1.60
2018-07-07T13:50:17.304Z,1.67
2018-07-07T13:52:46.117Z,1.60
2018-07-07T13:55:14.301Z,1.70
2018-07-07T13:57:42.518Z,1.77
2018-07-07T14:00:10.945Z,1.60
2018-07-07T14:02:39.248Z,1.93
2018-07-07T14:05:07.521Z,2.20
2018-07-07T14:07:35.744Z,1.73
2018-07-07T14:10:04.168Z,2.10
2018-07-07T14:12:32.523Z,1.93
2018-07-07T14:15:00.944Z,1.80
2018-07-07T14:17:29.200Z,1.60
2018-07-07T14:19:59.387Z,2.10
2018-07-07T14:22:27.677Z,1.80
2018-07-07T14:24:55.946Z,1.50
2018-07-07T14:27:24.285Z,2.20
2018-07-07T14:29:52.676Z,1.67
2018-07-07T14:32:20.887Z,1.80
2018-07-07T14:34:49.126Z,1.63
2018-07-07T14:37:17.645Z,1.60
2018-07-07T14:39:53.862Z,2.10
2018-07-07T14:42:51.178Z,1.77
2018-07-07T14:45:24.220Z,1.73
2018-07-07T14:47:53.614Z,1.63
2018-07-07T14:50:22.282Z,1.60
2018-07-07T14:52:50.511Z,1.57
2018-07-07T14:55:28.184Z,1.50
2018-07-07T14:57:57.190Z,2.30
2018-07-07T15:00:28.194Z,1.87
2018-07-07T15:02:57.308Z,1.57
2018-07-07T15:05:25.679Z,1.53
2018-07-07T15:07:53.978Z,1.63
2018-07-07T15:10:22.274Z,2.70
2018-07-07T15:12:50.482Z,1.47
2018-07-07T15:15:18.817Z,2.40
2018-07-07T15:17:47.497Z,1.93
2018-07-07T15:20:15.959Z,1.80
2018-07-07T15:22:44.423Z,1.60
2018-07-07T15:25:12.535Z,1.83
2018-07-07T15:27:40.829Z,2.20
2018-07-07T15:30:09.891Z,1.67
2018-07-07T15:32:38.467Z,2.13
2018-07-07T15:35:06.731Z,2.10
2018-07-07T15:37:34.991Z,1.70
2018-07-07T15:40:03.575Z,3.33
2018-07-07T15:42:31.882Z,2.93
2018-07-07T15:45:00.195Z,1.50
2018-07-07T15:47:28.498Z,2.17
2018-07-07T15:49:56.774Z,2.30
2018-07-07T15:52:25.087Z,4.47
2018-07-07T15:54:53.478Z,2.50
2018-07-07T15:57:21.712Z,2.10
2018-07-07T15:59:49.935Z,1.63
2018-07-07T16:02:18.151Z,1.50
2018-07-07T16:04:46.504Z,1.73
2018-07-07T16:07:14.794Z,1.70
2018-07-07T16:09:43.062Z,1.50
2018-07-07T16:12:11.241Z,1.53
2018-07-07T16:14:39.691Z,1.50
2018-07-07T16:17:08.071Z,1.33
2018-07-07T16:19:36.299Z,1.47
2018-07-07T16:22:04.635Z,1.67
2018-07-07T16:24:32.867Z,1.73
2018-07-07T16:27:01.283Z,1.60
2018-07-07T16:29:29.618Z,1.63
2018-07-07T16:31:57.935Z,3.20
2018-07-07T16:34:26.154Z,2.17
2018-07-07T16:36:54.531Z,2.40
2018-07-07T16:39:23.051Z,2.10
2018-07-07T16:41:51.451Z,1.80
2018-07-07T16:44:20.139Z,2.10
2018-07-07T16:46:48.553Z,1.67
2018-07-07T16:49:17.686Z,1.87
2018-07-07T16:51:46.151Z,1.80
2018-07-07T16:54:14.412Z,2.10
2018-07-07T16:56:42.683Z,2.00
2018-07-07T16:59:10.934Z,1.97
2018-07-07T17:01:39.759Z,1.77
2018-07-07T17:04:08.064Z,1.70
2018-07-07T17:06:36.691Z,1.80
2018-07-07T17:09:06.253Z,1.80
2018-07-07T17:11:34.576Z,2.30
2018-07-07T17:14:02.814Z,1.90
2018-07-07T17:16:31.707Z,1.70
2018-07-07T17:19:00.012Z,1.90
2018-07-07T17:21:28.387Z,2.10
2018-07-07T17:23:56.630Z,2.03
2018-07-07T17:26:25.186Z,1.70
2018-07-07T17:28:53.742Z,2.10
2018-07-07T17:31:21.979Z,1.80
2018-07-07T17:33:50.421Z,1.60
2018-07-07T17:36:18.721Z,2.00
2018-07-07T17:38:47.055Z,2.07
2018-07-07T17:41:15.543Z,2.83
2018-07-07T17:43:44.219Z,4.00
2018-07-07T17:46:12.567Z,2.40
2018-07-07T17:48:40.912Z,1.90
2018-07-07T17:51:09.265Z,2.50
2018-07-07T17:53:38.600Z,2.17
2018-07-07T17:56:06.984Z,3.17
2018-07-07T17:58:35.316Z,4.13
2018-07-07T18:01:03.586Z,2.73
2018-07-07T18:03:32.130Z,1.80
2018-07-07T18:06:00.551Z,1.77
2018-07-07T18:08:28.914Z,1.90
2018-07-07T18:10:57.163Z,1.70
2018-07-07T18:13:25.394Z,1.97
2018-07-07T18:15:53.736Z,2.00
2018-07-07T18:18:21.964Z,1.73
2018-07-07T18:20:50.208Z,1.73
2018-07-07T18:23:18.467Z,1.90
2018-07-07T18:25:47.477Z,2.00
2018-07-07T18:28:15.751Z,2.00
2018-07-07T18:30:44.044Z,1.90
2018-07-07T18:33:12.343Z,2.60
2018-07-07T18:35:40.784Z,2.07
2018-07-07T18:38:10.037Z,2.03
2018-07-07T18:40:38.140Z,1.90
2018-07-07T18:43:06.432Z,1.93
2018-07-07T18:45:34.743Z,2.10
2018-07-07T18:48:03.067Z,1.83
2018-07-07T18:50:31.483Z,2.07
2018-07-07T18:52:59.928Z,1.70
2018-07-07T18:55:28.162Z,2.07
2018-07-07T18:57:56.379Z,1.93
2018-07-07T19:00:24.946Z,1.87
2018-07-07T19:02:53.327Z,1.83
2018-07-07T19:05:21.689Z,1.97
2018-07-07T19:07:49.930Z,1.90
2018-07-07T19:10:18.236Z,1.97
2018-07-07T19:12:46.740Z,2.00
2018-07-07T19:15:19.774Z,1.70
2018-07-07T19:17:48.326Z,1.80
2018-07-07T19:20:22.124Z,1.80
2018-07-07T19:22:55.951Z,2.30
2018-07-07T19:25:29.800Z,1.67
2018-07-07T19:27:58.381Z,1.90
2018-07-07T19:30:26.842Z,1.33
2018-07-07T19:33:00.351Z,1.80
2018-07-07T19:35:33.839Z,1.60
2018-07-07T19:38:02.421Z,2.20
2018-07-07T19:40:30.955Z,1.73
2018-07-07T19:42:59.275Z,2.10
2018-07-07T19:45:27.566Z,1.67
2018-07-07T19:47:55.774Z,1.83
2018-07-07T19:50:24.457Z,6.83
2018-07-07T19:52:53.062Z,5.33
2018-07-07T19:55:21.605Z,2.63
2018-07-07T19:57:49.973Z,2.00
2018-07-07T20:00:18.288Z,1.83
2018-07-07T20:02:46.748Z,1.80
2018-07-07T20:05:15.119Z,1.70
2018-07-07T20:07:43.397Z,1.77
2018-07-07T20:10:11.689Z,1.70
2018-07-07T20:12:40.652Z,2.13
2018-07-07T20:15:09.199Z,1.70
2018-07-07T20:17:48.877Z,1.73
2018-07-07T20:20:38.117Z,2.00
2018-07-07T20:23:08.355Z,1.90
2018-07-07T20:25:36.635Z,3.70
2018-07-07T20:28:10.479Z,3.60
2018-07-07T20:30:38.863Z,2.03
2018-07-07T20:33:07.464Z,1.90
2018-07-07T20:35:35.767Z,2.10
2018-07-07T20:38:04.031Z,2.20
2018-07-07T20:40:32.414Z,2.30
2018-07-07T20:43:01.950Z,1.80
2018-07-07T20:45:31.029Z,2.13
2018-07-07T20:48:00.281Z,2.00
2018-07-07T20:50:28.518Z,1.90
2018-07-07T20:52:56.790Z,2.00
2018-07-07T20:55:25.977Z,2.23
2018-07-07T20:57:54.437Z,2.17
2018-07-07T21:00:22.655Z,1.90
2018-07-07T21:02:50.904Z,2.10
2018-07-07T21:05:19.111Z,2.10
2018-07-07T21:07:47.549Z,2.07
2018-07-07T21:10:15.681Z,2.23
2018-07-07T21:12:43.927Z,2.00
2018-07-07T21:15:12.243Z,2.07
2018-07-07T21:17:40.721Z,2.03
2018-07-07T21:20:09.348Z,1.90
2018-07-07T21:22:37.691Z,2.43
2018-07-07T21:25:06.039Z,2.03
2018-07-07T21:27:34.468Z,2.30
2018-07-07T21:30:02.849Z,2.23
2018-07-07T21:32:31.414Z,5.40
2018-07-07T21:34:59.651Z,2.57
2018-07-07T21:37:27.954Z,2.00
2018-07-07T21:39:56.209Z,1.90
2018-07-07T21:42:24.652Z,2.07
2018-07-07T21:44:53.871Z,2.00
2018-07-07T21:47:22.135Z,2.03
2018-07-07T21:49:50.411Z,2.10
2018-07-07T21:52:18.706Z,2.30
2018-07-07T21:54:52.483Z,2.10
2018-07-07T21:57:26.096Z,1.90
2018-07-07T21:59:54.420Z,2.10
2018-07-07T22:02:28.004Z,2.07
2018-07-07T22:05:01.741Z,1.90
2018-07-07T22:07:35.231Z,1.90
2018-07-07T22:10:03.478Z,2.33
2018-07-07T22:12:32.741Z,2.40
2018-07-07T22:15:01.023Z,2.07
2018-07-07T22:17:29.273Z,1.87
2018-07-07T22:19:57.529Z,2.20
2018-07-07T22:22:25.731Z,1.80
2018-07-07T22:24:54.007Z,2.10
2018-07-07T22:27:22.238Z,1.97
2018-07-07T22:29:50.475Z,1.77
2018-07-07T22:32:20.951Z,2.00
2018-07-07T22:34:49.297Z,2.40
2018-07-07T22:37:17.739Z,2.20
2018-07-07T22:39:46.579Z,2.30
2018-07-07T22:42:16.879Z,2.10
2018-07-07T22:44:46.776Z,1.90
2018-07-07T22:47:15.208Z,1.90
2018-07-07T22:49:43.463Z,2.20
2018-07-07T22:52:11.831Z,2.07
2018-07-07T22:54:40.346Z,1.77
2018-07-07T22:57:08.629Z,2.20
2018-07-07T22:59:36.951Z,1.70
2018-07-07T23:02:05.458Z,2.00
2018-07-07T23:04:33.810Z,2.07
2018-07-07T23:07:02.131Z,2.13
2018-07-07T23:09:30.474Z,1.93
2018-07-07T23:11:58.697Z,2.40
2018-07-07T23:14:26.894Z,2.03
2018-07-07T23:16:59.218Z,2.10
2018-07-07T23:19:27.802Z,2.10
2018-07-07T23:21:56.557Z,2.13
2018-07-07T23:24:25.185Z,2.17
2018-07-07T23:26:53.637Z,2.43
2018-07-07T23:29:21.889Z,2.50
2018-07-07T23:31:50.344Z,2.23
2018-07-07T23:34:18.592Z,2.10
2018-07-07T23:36:47.283Z,2.23
2018-07-07T23:39:16.636Z,2.20
2018-07-07T23:41:44.944Z,2.40
2018-07-07T23:44:13.157Z,2.40
2018-07-07T23:46:41.403Z,2.33
2018-07-07T23:49:09.653Z,2.20
2018-07-07T23:51:38.200Z,2.10
2018-07-07T23:54:06.669Z,2.60
2018-07-07T23:56:34.939Z,2.30
2018-07-07T23:59:03.436Z,2.27
